หน้าหลัก
METAR-TAF:

METAR-TAF

ท่าอากาศยาน :

Haugesund, นอร์เวย์

ละติจูด: 59-21N, ลองจิจูด: 005-13E, ความสูง: 2 ม.

การสังเกตสภาพอากาศปัจจุบัน

รายงานได้ทำขึ้นเมื่อ 15 นาทีที่แล้ว ณ เวลา 22:50 UTC
ลม 2 นอตจากทิศทางซึ่งแปรผันได้
อุณหภูมิ 13°C
ความชื้น 88%
ความกดอากาศ 1015 hPa
ทัศนวิสัย 10 กม. หรือมากกว่า
มีเมฆเป็นส่วนมากเว้นเป็นระยะที่ความสูง 600 ฟุต

METAR: ENHD 122250Z VRB02KT 9999 BKN006 13/11 Q1015

เวลา: 01:05 (23:05 UTC)

การพยากรณ์

รายงานได้ทำขึ้นเมื่อ 9 ชั่วโมงและ 5 นาทีที่แล้ว ณ เวลา 14:00 UTC
การพยากรณ์มีผลตั้งแต่วันที่ 12 ณ เวลา 15 UTC จนถึงวันที่ 12 ณ เวลา 23 UTC
ลม 7 นอตจากตะวันตก/ตะวันตกเฉียงเหนือ
ทัศนวิสัย 10 กม. หรือมากกว่า
มีเมฆน้อยที่ความสูง 2500 ฟุต
ความน่าจะเป็น 30%
ตั้งแต่วันที่ 12 ณ เวลา 18 UTC จนถึงวันที่ 12 ณ เวลา 23 UTC
มีเมฆเป็นส่วนมากเว้นเป็นระยะที่ความสูง 500 ฟุต

TAF: ENHD 121400Z 1215/1223 30007KT 9999 FEW025 PROB30 1218/1223 BKN005

สังเกตการณ์สภาพอากาศและพยากรณ์อากาศของสนามบินมากกว่า 4000 แห่ง (รายงาน METAR และ TAF).

สถานีที่ดูได้จะแสดงไว้ด้วยจุดสีเหลืองและสีแดงบนแผนที่.

เลื่อนเมาส์ไปเหนือจุดเพื่อดูชื่อสถานี.

แล้วคลิกเพื่อดูสังเกตการณ์และการพยากรณ์สภาพอากาศ.

ในการเปลี่ยนแผนที่: คลิกที่ปุ่มสีเขียวที่มีกากบาทสีดำเพื่อซูมเข้า; ที่ปุ่มสีเขียวที่มีขีดเพื่อซูมออก; หรือที่ลูกศรสีเขียวเพื่อไปยังแผนที่ที่อยู่ติดกัน.


METAR-TAF: